createdAt,value
2017-10-29T00:00:22.315Z,99.99
2017-10-29T00:01:22.358Z,99.99
2017-10-29T00:02:22.406Z,99.99
2017-10-29T00:03:22.452Z,99.99
2017-10-29T00:04:22.563Z,99.99
2017-10-29T00:05:22.543Z,99.99
2017-10-29T00:06:22.590Z,98.22
2017-10-29T00:07:22.634Z,98.88
2017-10-29T00:08:22.680Z,98.98
2017-10-29T00:09:22.791Z,98.69
2017-10-29T00:10:22.771Z,99.08
2017-10-29T00:11:22.818Z,99.99
2017-10-29T00:12:22.864Z,99.99
2017-10-29T00:13:22.908Z,99.99
2017-10-29T00:14:23.038Z,99.99
2017-10-29T00:15:22.998Z,99.99
2017-10-29T00:16:23.046Z,99.99
2017-10-29T00:17:23.094Z,99.99
2017-10-29T00:18:23.137Z,99.99
2017-10-29T00:19:23.252Z,99.99
2017-10-29T00:20:23.299Z,96.70
2017-10-29T00:21:23.275Z,96.98
2017-10-29T00:22:23.322Z,98.98
2017-10-29T00:23:23.373Z,99.99
2017-10-29T00:24:23.414Z,99.99
2017-10-29T00:25:23.524Z,99.99
2017-10-29T00:26:23.505Z,97.36
2017-10-29T00:27:23.549Z,97.93
2017-10-29T00:28:23.595Z,98.22
2017-10-29T00:29:23.646Z,97.17
2017-10-29T00:30:23.752Z,93.84
2017-10-29T00:31:23.733Z,91.17
2017-10-29T00:32:23.780Z,90.13
2017-10-29T00:33:23.829Z,90.89
2017-10-29T00:34:23.871Z,91.27
2017-10-29T00:35:23.981Z,91.84
2017-10-29T00:36:23.964Z,92.79
2017-10-29T00:37:24.008Z,95.36
2017-10-29T00:38:24.057Z,93.65
2017-10-29T00:39:24.098Z,93.65
2017-10-29T00:40:24.209Z,94.32
2017-10-29T00:41:24.192Z,95.17
2017-10-29T00:42:24.235Z,96.70
2017-10-29T00:43:24.288Z,95.75
2017-10-29T00:44:24.327Z,96.51
2017-10-29T00:45:24.437Z,96.60
2017-10-29T00:46:24.419Z,96.98
2017-10-29T00:47:24.465Z,96.51
2017-10-29T00:48:24.510Z,93.46
2017-10-29T00:49:24.555Z,92.03
2017-10-29T00:50:24.684Z,90.22
2017-10-29T00:51:24.654Z,91.65
2017-10-29T00:52:24.694Z,91.75
2017-10-29T00:53:24.739Z,88.70
2017-10-29T00:54:24.786Z,89.65
2017-10-29T00:55:24.896Z,92.08
2017-10-29T00:56:24.940Z,93.65
2017-10-29T00:57:24.920Z,93.74
2017-10-29T00:58:24.966Z,94.13
2017-10-29T00:59:25.014Z,94.03
2017-10-29T01:00:25.063Z,92.99
2017-10-29T01:01:25.169Z,92.79
2017-10-29T01:02:25.151Z,91.75
2017-10-29T01:03:25.198Z,91.56
2017-10-29T01:04:25.247Z,89.65
2017-10-29T01:05:25.289Z,90.17
2017-10-29T01:06:25.399Z,90.42
2017-10-29T01:07:25.382Z,90.75
2017-10-29T01:08:25.426Z,92.65
2017-10-29T01:09:25.471Z,92.60
2017-10-29T01:10:25.517Z,90.08
2017-10-29T01:11:25.630Z,90.56
2017-10-29T01:12:25.609Z,89.32
2017-10-29T01:13:25.653Z,89.32
2017-10-29T01:14:25.710Z,88.37
2017-10-29T01:15:25.749Z,88.65
2017-10-29T01:16:25.858Z,89.03
2017-10-29T01:17:25.842Z,89.41
2017-10-29T01:18:25.885Z,89.79
2017-10-29T01:19:25.932Z,90.36
2017-10-29T01:20:25.982Z,91.75
2017-10-29T01:21:26.086Z,92.46
2017-10-29T01:22:26.069Z,91.75
2017-10-29T01:23:26.115Z,93.51
2017-10-29T01:24:26.162Z,95.32
2017-10-29T01:25:26.206Z,96.03
2017-10-29T01:26:26.325Z,96.51
2017-10-29T01:27:26.296Z,95.17
2017-10-29T01:28:26.343Z,93.94
2017-10-29T01:29:26.390Z,91.75
2017-10-29T01:30:26.437Z,91.27
2017-10-29T01:31:26.568Z,92.41
2017-10-29T01:32:26.534Z,93.84
2017-10-29T01:33:26.574Z,94.79
2017-10-29T01:34:26.621Z,94.51
2017-10-29T01:35:26.665Z,93.84
2017-10-29T01:36:26.787Z,93.84
2017-10-29T01:37:26.761Z,94.60
2017-10-29T01:38:26.806Z,96.31
2017-10-29T01:39:26.852Z,96.79
2017-10-29T01:40:26.896Z,92.79
2017-10-29T01:41:27.026Z,93.94
2017-10-29T01:42:26.986Z,95.27
2017-10-29T01:43:27.034Z,95.27
2017-10-29T01:44:27.080Z,96.70
2017-10-29T01:45:27.127Z,94.60
2017-10-29T01:46:27.237Z,95.94
2017-10-29T01:47:27.281Z,96.70
2017-10-29T01:48:27.264Z,96.79
2017-10-29T01:49:27.310Z,96.60
2017-10-29T01:50:27.355Z,96.70
2017-10-29T01:51:27.401Z,93.55
2017-10-29T01:52:27.518Z,95.08
2017-10-29T01:53:27.500Z,92.41
2017-10-29T01:54:27.545Z,92.51
2017-10-29T01:55:27.585Z,93.65
2017-10-29T01:56:27.632Z,93.55
2017-10-29T01:57:27.742Z,93.74
2017-10-29T01:58:27.723Z,94.42
2017-10-29T01:59:27.769Z,94.79
2017-10-29T02:00:27.816Z,96.60
2017-10-29T02:01:27.883Z,96.41
2017-10-29T02:02:27.979Z,95.36
2017-10-29T02:03:27.954Z,94.03
2017-10-29T02:04:28.000Z,95.08
2017-10-29T02:05:28.045Z,95.94
2017-10-29T02:06:28.091Z,94.70
2017-10-29T02:07:28.201Z,93.74
2017-10-29T02:08:28.192Z,94.70
2017-10-29T02:09:28.229Z,94.32
2017-10-29T02:10:28.278Z,96.31
2017-10-29T02:11:28.322Z,94.51
2017-10-29T02:12:28.432Z,93.94
2017-10-29T02:13:28.413Z,93.18
2017-10-29T02:14:28.459Z,92.60
2017-10-29T02:15:28.504Z,91.94
2017-10-29T02:16:28.550Z,88.70
2017-10-29T02:17:28.664Z,91.08
2017-10-29T02:18:28.644Z,92.03
2017-10-29T02:19:28.691Z,92.89
2017-10-29T02:20:28.738Z,94.22
2017-10-29T02:21:28.784Z,91.37
2017-10-29T02:22:28.899Z,92.79
2017-10-29T02:23:28.874Z,91.46
2017-10-29T02:24:28.918Z,91.46
2017-10-29T02:25:28.963Z,90.22
2017-10-29T02:26:29.009Z,89.08
2017-10-29T02:27:29.119Z,90.61
2017-10-29T02:28:29.103Z,91.94
2017-10-29T02:29:29.149Z,90.13
2017-10-29T02:30:29.196Z,92.60
2017-10-29T02:31:29.241Z,91.46
2017-10-29T02:32:29.364Z,90.51
2017-10-29T02:33:29.330Z,90.61
2017-10-29T02:34:29.377Z,94.42
2017-10-29T02:35:29.429Z,93.84
2017-10-29T02:36:29.467Z,95.08
2017-10-29T02:37:29.600Z,93.18
2017-10-29T02:38:29.561Z,91.75
2017-10-29T02:39:29.641Z,90.61
2017-10-29T02:40:29.649Z,91.27
2017-10-29T02:41:29.699Z,92.60
2017-10-29T02:42:29.810Z,93.08
2017-10-29T02:43:29.856Z,92.03
2017-10-29T02:44:29.836Z,92.89
2017-10-29T02:45:29.880Z,93.65
2017-10-29T02:46:29.927Z,92.60
2017-10-29T02:47:29.974Z,93.94
2017-10-29T02:48:30.089Z,96.12
2017-10-29T02:49:30.065Z,93.37
2017-10-29T02:50:30.114Z,92.79
2017-10-29T02:51:30.157Z,89.84
2017-10-29T02:52:30.222Z,90.42
2017-10-29T02:53:30.312Z,93.18
2017-10-29T02:54:30.296Z,92.89
2017-10-29T02:55:30.342Z,95.27
2017-10-29T02:56:30.392Z,93.84
2017-10-29T02:57:30.433Z,92.89
2017-10-29T02:58:30.543Z,93.08
2017-10-29T02:59:30.526Z,92.89
2017-10-29T03:00:30.573Z,93.27
2017-10-29T03:01:30.616Z,92.32
2017-10-29T03:02:30.666Z,93.55
2017-10-29T03:03:30.773Z,93.55
2017-10-29T03:04:30.754Z,94.60
2017-10-29T03:05:30.801Z,92.79
2017-10-29T03:06:30.847Z,90.61
2017-10-29T03:07:30.891Z,91.75
2017-10-29T03:08:31.005Z,92.89
2017-10-29T03:09:30.985Z,92.99
2017-10-29T03:10:31.029Z,89.84
2017-10-29T03:11:31.075Z,89.37
2017-10-29T03:12:31.125Z,88.32
2017-10-29T03:13:31.251Z,86.32
2017-10-29T03:14:31.213Z,86.32
2017-10-29T03:15:31.259Z,86.94
2017-10-29T03:16:31.307Z,87.51
2017-10-29T03:17:31.366Z,87.60
2017-10-29T03:18:31.477Z,85.70
2017-10-29T03:19:31.443Z,86.36
2017-10-29T03:20:31.490Z,88.65
2017-10-29T03:21:31.538Z,88.75
2017-10-29T03:22:31.578Z,88.75
2017-10-29T03:23:31.710Z,88.46
2017-10-29T03:24:31.675Z,89.13
2017-10-29T03:25:31.721Z,86.65
2017-10-29T03:26:31.765Z,87.13
2017-10-29T03:27:31.812Z,88.46
2017-10-29T03:28:31.922Z,89.41
2017-10-29T03:29:31.966Z,86.55
2017-10-29T03:30:31.950Z,84.27
2017-10-29T03:31:31.996Z,84.94
2017-10-29T03:32:32.043Z,86.36
2017-10-29T03:33:32.087Z,87.03
2017-10-29T03:34:32.200Z,86.55
2017-10-29T03:35:32.185Z,83.41
2017-10-29T03:36:32.230Z,82.56
2017-10-29T03:37:32.271Z,82.21
2017-10-29T03:38:32.317Z,83.55
2017-10-29T03:39:32.429Z,81.36
2017-10-29T03:40:32.419Z,81.26
2017-10-29T03:41:32.466Z,80.60
2017-10-29T03:42:32.502Z,79.46
2017-10-29T03:43:32.549Z,78.12
2017-10-29T03:44:32.661Z,79.17
2017-10-29T03:45:32.644Z,78.31
2017-10-29T03:46:32.686Z,78.59
2017-10-29T03:47:32.734Z,78.50
2017-10-29T03:48:32.779Z,78.69
2017-10-29T03:49:32.887Z,78.12
2017-10-29T03:50:32.870Z,78.31
2017-10-29T03:51:32.916Z,77.55
2017-10-29T03:52:32.967Z,77.07
2017-10-29T03:53:33.012Z,77.17
2017-10-29T03:54:33.132Z,76.03
2017-10-29T03:55:33.105Z,77.55
2017-10-29T03:56:33.151Z,77.26
2017-10-29T03:57:33.192Z,75.36
2017-10-29T03:58:33.238Z,76.59
2017-10-29T03:59:33.370Z,75.26
2017-10-29T04:00:33.334Z,75.64
2017-10-29T04:01:33.379Z,76.59
2017-10-29T04:02:33.427Z,77.36
2017-10-29T04:03:33.472Z,79.07
2017-10-29T04:04:33.593Z,79.64
2017-10-29T04:05:33.562Z,79.07
2017-10-29T04:06:33.611Z,80.02
2017-10-29T04:07:33.655Z,80.50
2017-10-29T04:08:33.705Z,80.41
2017-10-29T04:09:34.382Z,79.83
2017-10-29T04:10:33.860Z,80.31
2017-10-29T04:11:33.836Z,81.26
2017-10-29T04:12:33.886Z,81.65
2017-10-29T04:13:33.930Z,81.46
2017-10-29T04:14:33.977Z,80.31
2017-10-29T04:15:34.098Z,80.88
2017-10-29T04:16:34.070Z,81.65
2017-10-29T04:17:34.117Z,81.84
2017-10-29T04:18:34.162Z,83.84
2017-10-29T04:19:34.211Z,84.98
2017-10-29T04:20:34.319Z,85.36
2017-10-29T04:21:34.301Z,86.88
2017-10-29T04:22:34.347Z,87.17
2017-10-29T04:23:34.398Z,86.12
2017-10-29T04:24:34.439Z,86.12
2017-10-29T04:25:34.549Z,87.93
2017-10-29T04:26:34.529Z,87.84
2017-10-29T04:27:34.579Z,86.75
2017-10-29T04:28:34.625Z,86.84
2017-10-29T04:29:34.669Z,88.75
2017-10-29T04:30:34.780Z,89.51
2017-10-29T04:31:34.772Z,89.89
2017-10-29T04:32:34.807Z,87.03
2017-10-29T04:33:34.859Z,86.65
2017-10-29T04:34:34.900Z,87.79
2017-10-29T04:35:35.011Z,87.41
2017-10-29T04:36:34.994Z,86.84
2017-10-29T04:37:35.038Z,88.75
2017-10-29T04:38:35.083Z,92.08
2017-10-29T04:39:35.131Z,90.46
2017-10-29T04:40:35.241Z,90.65
2017-10-29T04:41:35.225Z,91.89
2017-10-29T04:42:35.271Z,92.60
2017-10-29T04:43:35.315Z,91.31
2017-10-29T04:44:35.362Z,92.84
2017-10-29T04:45:35.491Z,93.55
2017-10-29T04:46:35.456Z,95.65
2017-10-29T04:47:35.499Z,96.98
2017-10-29T04:48:35.546Z,96.31
2017-10-29T04:49:35.601Z,96.22
2017-10-29T04:50:35.705Z,98.41
2017-10-29T04:51:35.750Z,99.08
2017-10-29T04:52:35.730Z,99.17
2017-10-29T04:53:35.775Z,99.99
2017-10-29T04:54:35.821Z,94.03
2017-10-29T04:55:35.868Z,96.22
2017-10-29T04:56:35.980Z,96.60
2017-10-29T04:57:35.961Z,90.42
2017-10-29T04:58:36.005Z,89.65
2017-10-29T04:59:36.052Z,89.56
2017-10-29T05:00:36.095Z,88.56
2017-10-29T05:01:36.206Z,89.03
2017-10-29T05:02:36.187Z,89.79
2017-10-29T05:03:36.237Z,91.51
2017-10-29T05:04:36.280Z,90.13
2017-10-29T05:05:36.323Z,89.41
2017-10-29T05:06:36.434Z,91.89
2017-10-29T05:07:36.417Z,92.74
2017-10-29T05:08:36.461Z,94.51
2017-10-29T05:09:36.508Z,93.65
2017-10-29T05:10:36.552Z,92.13
2017-10-29T05:11:36.668Z,92.99
2017-10-29T05:12:36.645Z,94.79
2017-10-29T05:13:36.696Z,92.79
2017-10-29T05:14:36.736Z,93.37
2017-10-29T05:15:36.783Z,92.84
2017-10-29T05:16:36.894Z,92.18
2017-10-29T05:17:36.874Z,93.79
2017-10-29T05:18:36.917Z,92.18
2017-10-29T05:19:36.965Z,91.41
2017-10-29T05:20:37.011Z,90.84
2017-10-29T05:21:37.135Z,90.27
2017-10-29T05:22:37.102Z,91.79
2017-10-29T05:23:37.148Z,93.13
2017-10-29T05:24:37.192Z,93.41
2017-10-29T05:25:37.239Z,93.79
2017-10-29T05:26:37.349Z,93.32
2017-10-29T05:27:37.330Z,93.13
2017-10-29T05:28:37.377Z,91.79
2017-10-29T05:29:37.421Z,90.65
2017-10-29T05:30:37.467Z,90.60
2017-10-29T05:31:37.594Z,91.99
2017-10-29T05:32:37.562Z,91.46
2017-10-29T05:33:37.610Z,92.84
2017-10-29T05:34:37.654Z,91.36
2017-10-29T05:35:37.698Z,92.69
2017-10-29T05:36:37.810Z,93.46
2017-10-29T05:37:37.858Z,94.74
2017-10-29T05:38:37.835Z,95.32
2017-10-29T05:39:37.880Z,94.56
2017-10-29T05:40:37.926Z,93.74
2017-10-29T05:41:37.973Z,93.89
2017-10-29T05:42:38.083Z,94.70
2017-10-29T05:43:38.060Z,93.55
2017-10-29T05:44:38.110Z,93.84
2017-10-29T05:45:38.157Z,95.36
2017-10-29T05:46:38.201Z,95.56
2017-10-29T05:47:38.312Z,93.70
2017-10-29T05:48:38.294Z,92.98
2017-10-29T05:49:38.339Z,93.08
2017-10-29T05:50:38.385Z,94.03
2017-10-29T05:51:38.432Z,94.46
2017-10-29T05:52:38.542Z,93.60
2017-10-29T05:53:38.522Z,94.65
2017-10-29T05:54:38.567Z,93.60
2017-10-29T05:55:38.618Z,93.37
2017-10-29T05:56:38.660Z,94.74
2017-10-29T05:57:38.770Z,92.18
2017-10-29T05:58:38.754Z,92.41
2017-10-29T05:59:38.800Z,89.94
2017-10-29T06:00:38.847Z,89.36
2017-10-29T06:01:38.895Z,89.46
2017-10-29T06:02:39.001Z,88.79
2017-10-29T06:03:39.538Z,88.60
2017-10-29T06:04:39.031Z,88.98
2017-10-29T06:05:39.075Z,90.22
2017-10-29T06:06:39.122Z,91.65
2017-10-29T06:07:39.231Z,91.94
2017-10-29T06:08:39.220Z,92.03
2017-10-29T06:09:39.259Z,89.55
2017-10-29T06:10:39.305Z,88.89
2017-10-29T06:11:39.353Z,88.60
2017-10-29T06:12:39.460Z,90.12
2017-10-29T06:13:39.443Z,87.65
2017-10-29T06:14:39.488Z,86.12
2017-10-29T06:15:39.539Z,88.79
2017-10-29T06:16:39.580Z,86.69
2017-10-29T06:17:39.690Z,86.32
2017-10-29T06:18:39.674Z,87.17
2017-10-29T06:19:39.720Z,87.27
2017-10-29T06:20:39.765Z,87.17
2017-10-29T06:21:39.808Z,86.88
2017-10-29T06:22:39.922Z,85.93
2017-10-29T06:23:39.907Z,86.69
2017-10-29T06:24:39.948Z,87.27
2017-10-29T06:25:39.995Z,85.74
2017-10-29T06:26:40.042Z,85.55
2017-10-29T06:27:40.155Z,85.36
2017-10-29T06:28:40.135Z,87.07
2017-10-29T06:29:40.180Z,87.27
2017-10-29T06:30:40.226Z,86.12
2017-10-29T06:31:40.273Z,86.03
2017-10-29T06:32:40.388Z,85.74
2017-10-29T06:33:40.364Z,87.17
2017-10-29T06:34:40.412Z,87.46
2017-10-29T06:35:40.456Z,88.98
2017-10-29T06:36:40.504Z,89.46
2017-10-29T06:37:40.619Z,88.79
2017-10-29T06:38:40.597Z,85.84
2017-10-29T06:39:40.641Z,86.32
2017-10-29T06:40:40.688Z,86.12
2017-10-29T06:41:40.734Z,86.32
2017-10-29T06:42:40.866Z,86.03
2017-10-29T06:43:40.827Z,85.64
2017-10-29T06:44:40.875Z,85.74
2017-10-29T06:45:40.924Z,85.93
2017-10-29T06:46:40.970Z,86.41
2017-10-29T06:47:41.077Z,86.32
2017-10-29T06:48:41.058Z,85.74
2017-10-29T06:49:41.105Z,85.84
2017-10-29T06:50:41.152Z,86.03
2017-10-29T06:51:41.204Z,86.41
2017-10-29T06:52:41.338Z,85.55
2017-10-29T06:53:41.289Z,85.74
2017-10-29T06:54:41.335Z,85.74
2017-10-29T06:55:41.396Z,85.17
2017-10-29T06:56:41.427Z,86.41
2017-10-29T06:57:41.537Z,86.69
2017-10-29T06:58:41.522Z,85.74
2017-10-29T06:59:41.566Z,85.17
2017-10-29T07:00:41.614Z,86.41
2017-10-29T07:01:41.657Z,86.60
2017-10-29T07:02:41.770Z,87.17
2017-10-29T07:03:41.751Z,88.51
2017-10-29T07:04:41.797Z,88.89
2017-10-29T07:05:41.844Z,88.89
2017-10-29T07:06:41.890Z,88.98
2017-10-29T07:07:42.001Z,88.79
2017-10-29T07:08:41.981Z,88.79
2017-10-29T07:09:42.028Z,89.17
2017-10-29T07:10:42.080Z,89.84
2017-10-29T07:11:42.124Z,90.70
2017-10-29T07:12:43.042Z,91.36
2017-10-29T07:13:42.212Z,91.46
2017-10-29T07:14:42.260Z,90.46
2017-10-29T07:15:42.309Z,91.22
2017-10-29T07:16:42.352Z,90.75
2017-10-29T07:17:42.481Z,88.70
2017-10-29T07:18:42.443Z,88.79
2017-10-29T07:19:42.492Z,88.89
2017-10-29T07:20:42.537Z,87.74
2017-10-29T07:21:42.582Z,86.41
2017-10-29T07:22:42.712Z,87.55
2017-10-29T07:23:42.682Z,86.60
2017-10-29T07:24:42.724Z,87.74
2017-10-29T07:25:42.767Z,86.41
2017-10-29T07:26:42.815Z,87.07
2017-10-29T07:27:42.924Z,88.03
2017-10-29T07:28:42.971Z,87.27
2017-10-29T07:29:42.954Z,86.98
2017-10-29T07:30:42.998Z,86.03
2017-10-29T07:31:43.045Z,86.41
2017-10-29T07:32:43.091Z,86.93
2017-10-29T07:33:43.204Z,87.55
2017-10-29T07:34:43.184Z,86.45
2017-10-29T07:35:43.229Z,85.78
2017-10-29T07:36:43.276Z,85.21
2017-10-29T07:37:43.319Z,87.21
2017-10-29T07:38:43.433Z,85.60
2017-10-29T07:39:43.418Z,86.07
2017-10-29T07:40:43.459Z,85.12
2017-10-29T07:41:43.506Z,83.97
2017-10-29T07:42:43.554Z,84.45
2017-10-29T07:43:43.664Z,84.55
2017-10-29T07:44:43.649Z,85.97
2017-10-29T07:45:43.702Z,87.21
2017-10-29T07:46:43.737Z,85.50
2017-10-29T07:47:43.784Z,85.88
2017-10-29T07:48:43.894Z,86.36
2017-10-29T07:49:43.877Z,87.40
2017-10-29T07:50:43.922Z,87.31
2017-10-29T07:51:43.968Z,87.79
2017-10-29T07:52:44.021Z,87.88
2017-10-29T07:53:44.127Z,87.60
2017-10-29T07:54:44.109Z,87.31
2017-10-29T07:55:44.155Z,87.98
2017-10-29T07:56:44.202Z,88.60
2017-10-29T07:57:44.248Z,89.26
2017-10-29T07:58:44.356Z,88.60
2017-10-29T07:59:44.339Z,90.12
2017-10-29T08:00:44.386Z,90.50
2017-10-29T08:01:44.433Z,90.98
2017-10-29T08:02:44.480Z,90.70
2017-10-29T08:03:44.590Z,90.89
2017-10-29T08:04:44.572Z,90.70
2017-10-29T08:05:44.617Z,92.03
2017-10-29T08:06:44.663Z,93.08
2017-10-29T08:07:44.710Z,91.55
2017-10-29T08:08:44.841Z,91.65
2017-10-29T08:09:44.805Z,92.32
2017-10-29T08:10:44.850Z,91.84
2017-10-29T08:11:44.895Z,92.69
2017-10-29T08:12:44.941Z,92.22
2017-10-29T08:13:45.075Z,92.41
2017-10-29T08:14:45.033Z,93.08
2017-10-29T08:15:45.084Z,92.13
2017-10-29T08:16:45.128Z,92.22
2017-10-29T08:17:45.172Z,92.89
2017-10-29T08:18:45.286Z,92.03
2017-10-29T08:19:45.328Z,93.46
2017-10-29T08:20:45.311Z,94.13
2017-10-29T08:21:45.359Z,94.13
2017-10-29T08:22:45.410Z,93.17
2017-10-29T08:23:45.452Z,93.27
2017-10-29T08:24:45.660Z,94.32
2017-10-29T08:25:45.542Z,93.37
2017-10-29T08:26:45.593Z,94.79
2017-10-29T08:27:45.636Z,96.22
2017-10-29T08:28:45.683Z,94.03
2017-10-29T08:29:45.793Z,93.84
2017-10-29T08:30:45.773Z,94.32
2017-10-29T08:31:45.822Z,94.41
2017-10-29T08:32:45.866Z,94.98
2017-10-29T08:33:45.914Z,95.27
2017-10-29T08:34:46.024Z,95.32
2017-10-29T08:35:46.004Z,95.36
2017-10-29T08:36:46.051Z,95.41
2017-10-29T08:37:46.098Z,95.51
2017-10-29T08:38:46.144Z,96.36
2017-10-29T08:39:46.276Z,96.27
2017-10-29T08:40:46.234Z,96.84
2017-10-29T08:41:46.281Z,97.31
2017-10-29T08:42:46.328Z,97.51
2017-10-29T08:43:46.376Z,97.03
2017-10-29T08:44:46.504Z,96.94
2017-10-29T08:45:46.474Z,97.41
2017-10-29T08:46:46.516Z,96.41
2017-10-29T08:47:46.562Z,95.60
2017-10-29T08:48:46.603Z,96.22
2017-10-29T08:49:46.713Z,96.98
2017-10-29T08:50:46.760Z,97.65
2017-10-29T08:51:46.749Z,97.22
2017-10-29T08:52:46.795Z,97.70
2017-10-29T08:53:46.837Z,98.74
2017-10-29T08:54:46.881Z,96.94
2017-10-29T08:55:46.991Z,97.65
2017-10-29T08:56:46.979Z,98.60
2017-10-29T08:57:47.018Z,97.46
2017-10-29T08:58:47.065Z,99.51
2017-10-29T08:59:47.114Z,98.27
2017-10-29T09:00:47.476Z,98.46
2017-10-29T09:01:47.202Z,98.94
2017-10-29T09:02:47.249Z,99.69
2017-10-29T09:03:47.296Z,98.32
2017-10-29T09:04:47.342Z,97.84
2017-10-29T09:05:47.458Z,98.74
2017-10-29T09:06:47.437Z,99.08
2017-10-29T09:07:47.477Z,97.84
2017-10-29T09:08:47.524Z,98.51
2017-10-29T09:09:47.573Z,97.65
2017-10-29T09:10:47.687Z,98.03
2017-10-29T09:11:47.664Z,99.08
2017-10-29T09:12:47.710Z,98.51
2017-10-29T09:13:47.758Z,98.99
2017-10-29T09:14:47.804Z,98.70
2017-10-29T09:15:47.918Z,97.08
2017-10-29T09:16:47.900Z,97.46
2017-10-29T09:17:47.942Z,97.08
2017-10-29T09:18:47.988Z,97.75
2017-10-29T09:19:48.035Z,98.41
2017-10-29T09:20:48.146Z,98.51
2017-10-29T09:21:48.125Z,97.17
2017-10-29T09:22:48.172Z,95.36
2017-10-29T09:23:48.220Z,95.36
2017-10-29T09:24:48.266Z,94.60
2017-10-29T09:25:48.404Z,94.22
2017-10-29T09:26:48.358Z,94.03
2017-10-29T09:27:48.403Z,93.93
2017-10-29T09:28:48.449Z,95.56
2017-10-29T09:29:48.496Z,96.41
2017-10-29T09:30:48.622Z,95.27
2017-10-29T09:31:48.590Z,95.46
2017-10-29T09:32:48.634Z,95.56
2017-10-29T09:33:48.680Z,95.65
2017-10-29T09:34:48.725Z,96.80
2017-10-29T09:35:48.843Z,96.03
2017-10-29T09:36:48.881Z,94.98
2017-10-29T09:37:48.867Z,96.22
2017-10-29T09:38:48.911Z,96.89
2017-10-29T09:39:48.957Z,97.27
2017-10-29T09:40:49.002Z,96.41
2017-10-29T09:41:49.112Z,96.80
2017-10-29T09:42:49.093Z,97.08
2017-10-29T09:43:49.143Z,95.94
2017-10-29T09:44:49.188Z,96.12
2017-10-29T09:45:49.241Z,96.22
2017-10-29T09:46:49.348Z,96.03
2017-10-29T09:47:49.328Z,96.03
2017-10-29T09:48:49.373Z,95.17
2017-10-29T09:49:49.416Z,96.27
2017-10-29T09:50:49.463Z,96.75
2017-10-29T09:51:49.576Z,96.36
2017-10-29T09:52:49.557Z,96.27
2017-10-29T09:53:49.603Z,96.27
2017-10-29T09:54:49.661Z,96.94
2017-10-29T09:55:49.703Z,96.46
2017-10-29T09:56:49.828Z,96.84
2017-10-29T09:57:49.788Z,97.51
2017-10-29T09:58:49.834Z,97.32
2017-10-29T09:59:49.889Z,96.75
2017-10-29T10:00:49.930Z,97.61
2017-10-29T10:01:50.059Z,97.32
2017-10-29T10:02:50.021Z,97.32
2017-10-29T10:03:50.068Z,97.80
2017-10-29T10:04:50.115Z,96.94
2017-10-29T10:05:50.161Z,97.41
2017-10-29T10:06:50.271Z,97.51
2017-10-29T10:07:50.252Z,97.51
2017-10-29T10:08:50.299Z,98.94
2017-10-29T10:09:50.345Z,98.94
2017-10-29T10:10:50.406Z,97.70
2017-10-29T10:11:50.522Z,98.56
2017-10-29T10:12:50.485Z,99.89
2017-10-29T10:13:50.532Z,99.22
2017-10-29T10:14:50.581Z,98.85
2017-10-29T10:15:50.626Z,99.32
2017-10-29T10:16:50.755Z,99.22
2017-10-29T10:17:50.715Z,98.94
2017-10-29T10:18:50.763Z,98.46
2017-10-29T10:19:50.809Z,99.13
2017-10-29T10:20:50.857Z,98.94
2017-10-29T10:21:50.968Z,97.99
2017-10-29T10:22:51.015Z,99.04
2017-10-29T10:23:50.997Z,99.13
2017-10-29T10:24:51.042Z,98.36
2017-10-29T10:25:51.090Z,98.94
2017-10-29T10:26:51.200Z,99.04
2017-10-29T10:27:51.246Z,99.13
2017-10-29T10:28:51.230Z,99.60
2017-10-29T10:29:51.276Z,98.75
2017-10-29T10:30:51.320Z,98.94
2017-10-29T10:31:51.370Z,99.89
2017-10-29T10:32:51.485Z,98.94
2017-10-29T10:33:51.460Z,99.22
2017-10-29T10:34:51.512Z,99.99
2017-10-29T10:35:51.557Z,99.41
2017-10-29T10:36:51.602Z,98.75
2017-10-29T10:37:51.714Z,98.65
2017-10-29T10:38:51.697Z,99.89
2017-10-29T10:39:51.740Z,99.51
2017-10-29T10:40:51.792Z,99.80
2017-10-29T10:41:51.833Z,99.99
2017-10-29T10:42:51.944Z,99.99
2017-10-29T10:43:51.927Z,99.70
2017-10-29T10:44:51.976Z,99.99
2017-10-29T10:45:52.023Z,99.99
2017-10-29T10:46:52.069Z,99.99
2017-10-29T10:47:52.182Z,98.94
2017-10-29T10:48:52.165Z,98.75
2017-10-29T10:49:52.222Z,99.18
2017-10-29T10:50:52.259Z,99.80
2017-10-29T10:51:52.300Z,99.80
2017-10-29T10:52:52.414Z,99.46
2017-10-29T10:53:52.394Z,98.80
2017-10-29T10:54:52.441Z,99.66
2017-10-29T10:55:52.487Z,99.66
2017-10-29T10:56:52.534Z,99.08
2017-10-29T10:57:52.648Z,98.42
2017-10-29T10:58:52.628Z,98.22
2017-10-29T10:59:52.675Z,98.99
2017-10-29T11:00:52.721Z,98.85
2017-10-29T11:01:53.422Z,98.61
2017-10-29T11:02:52.897Z,97.94
2017-10-29T11:03:52.861Z,98.61
2017-10-29T11:04:52.907Z,98.90
2017-10-29T11:05:52.954Z,98.42
2017-10-29T11:06:53.001Z,97.75
2017-10-29T11:07:53.114Z,97.94
2017-10-29T11:08:53.166Z,96.32
2017-10-29T11:09:53.146Z,96.98
2017-10-29T11:10:53.188Z,97.27
2017-10-29T11:11:53.238Z,97.17
2017-10-29T11:12:53.283Z,98.51
2017-10-29T11:13:53.391Z,98.61
2017-10-29T11:14:53.377Z,96.89
2017-10-29T11:15:53.427Z,97.17
2017-10-29T11:16:53.474Z,97.75
2017-10-29T11:17:53.515Z,96.98
2017-10-29T11:18:53.627Z,98.32
2017-10-29T11:19:53.608Z,98.51
2017-10-29T11:20:53.657Z,98.99
2017-10-29T11:21:53.707Z,98.61
2017-10-29T11:22:53.751Z,98.51
2017-10-29T11:23:53.861Z,97.85
2017-10-29T11:24:53.844Z,97.94
2017-10-29T11:25:53.889Z,98.61
2017-10-29T11:26:53.938Z,98.32
2017-10-29T11:27:53.985Z,97.56
2017-10-29T11:28:54.094Z,99.18
2017-10-29T11:29:54.078Z,97.66
2017-10-29T11:30:54.127Z,99.18
2017-10-29T11:31:54.172Z,99.08
2017-10-29T11:32:54.218Z,98.61
2017-10-29T11:33:54.346Z,98.80
2017-10-29T11:34:54.319Z,99.08
2017-10-29T11:35:54.359Z,98.70
2017-10-29T11:36:54.407Z,99.08
2017-10-29T11:37:54.458Z,98.80
2017-10-29T11:38:54.587Z,99.18
2017-10-29T11:39:54.547Z,98.22
2017-10-29T11:40:54.594Z,97.56
2017-10-29T11:41:54.641Z,97.66
2017-10-29T11:42:54.688Z,98.42
2017-10-29T11:43:54.819Z,98.32
2017-10-29T11:44:54.783Z,98.03
2017-10-29T11:45:54.825Z,99.56
2017-10-29T11:46:54.876Z,99.99
2017-10-29T11:47:54.920Z,99.66
2017-10-29T11:48:55.034Z,99.85
2017-10-29T11:49:55.080Z,99.99
2017-10-29T11:50:55.064Z,99.99
2017-10-29T11:51:55.119Z,99.99
2017-10-29T11:52:55.169Z,99.27
2017-10-29T11:53:55.203Z,98.03
2017-10-29T11:54:55.314Z,97.85
2017-10-29T11:55:55.298Z,99.18
2017-10-29T11:56:55.344Z,98.03
2017-10-29T11:57:55.390Z,99.08
2017-10-29T11:58:55.437Z,98.42
2017-10-29T11:59:55.549Z,98.13
2017-10-29T12:00:55.538Z,98.32
2017-10-29T12:01:55.580Z,98.61
2017-10-29T12:02:55.627Z,99.08
2017-10-29T12:03:55.674Z,98.70
2017-10-29T12:04:55.791Z,98.70
2017-10-29T12:05:55.775Z,98.22
2017-10-29T12:06:55.813Z,98.18
2017-10-29T12:07:55.860Z,97.80
2017-10-29T12:08:55.909Z,97.71
2017-10-29T12:09:56.130Z,97.61
2017-10-29T12:10:56.003Z,97.71
2017-10-29T12:11:56.049Z,97.61
2017-10-29T12:12:56.096Z,96.75
2017-10-29T12:13:56.150Z,97.71
2017-10-29T12:14:56.252Z,97.22
2017-10-29T12:15:56.241Z,97.80
2017-10-29T12:16:56.285Z,97.42
2017-10-29T12:17:56.337Z,97.51
2017-10-29T12:18:56.378Z,97.80
2017-10-29T12:19:56.491Z,98.37
2017-10-29T12:20:56.472Z,98.56
2017-10-29T12:21:56.521Z,97.61
2017-10-29T12:22:56.568Z,98.47
2017-10-29T12:23:56.615Z,97.71
2017-10-29T12:24:56.738Z,98.66
2017-10-29T12:25:56.708Z,98.94
2017-10-29T12:26:56.757Z,99.13
2017-10-29T12:27:56.805Z,99.04
2017-10-29T12:28:56.855Z,99.52
2017-10-29T12:29:56.961Z,99.71
2017-10-29T12:30:57.018Z,98.94
2017-10-29T12:31:56.991Z,98.47
2017-10-29T12:32:57.048Z,97.32
2017-10-29T12:33:57.089Z,98.85
2017-10-29T12:34:57.208Z,99.23
2017-10-29T12:35:57.244Z,97.51
2017-10-29T12:36:57.229Z,97.80
2017-10-29T12:37:57.277Z,97.22
2017-10-29T12:38:57.326Z,96.75
2017-10-29T12:39:57.368Z,97.51
2017-10-29T12:40:57.483Z,99.52
2017-10-29T12:41:57.466Z,99.80
2017-10-29T12:42:57.512Z,99.32
2017-10-29T12:43:57.573Z,98.85
2017-10-29T12:44:57.605Z,99.99
2017-10-29T12:45:57.718Z,99.99
2017-10-29T12:46:57.702Z,99.56
2017-10-29T12:47:57.749Z,99.42
2017-10-29T12:48:57.795Z,98.94
2017-10-29T12:49:57.849Z,99.04
2017-10-29T12:50:57.954Z,99.23
2017-10-29T12:51:57.938Z,99.99
2017-10-29T12:52:57.985Z,98.85